createdAt,value
2022-12-26T00:02:06.933Z,9.00
2022-12-26T00:04:48.538Z,9.01
2022-12-26T00:07:19.757Z,9.02
2022-12-26T00:09:47.038Z,9.02
2022-12-26T00:12:14.295Z,9.04
2022-12-26T00:14:41.610Z,9.06
2022-12-26T00:17:08.631Z,9.08
2022-12-26T00:19:35.601Z,9.08
2022-12-26T00:22:02.524Z,9.08
2022-12-26T00:24:29.448Z,9.09
2022-12-26T00:26:56.373Z,9.08
2022-12-26T00:29:23.279Z,9.07
2022-12-26T00:31:50.249Z,9.08
2022-12-26T00:34:17.396Z,9.09
2022-12-26T00:36:44.303Z,9.11
2022-12-26T00:39:11.875Z,9.12
2022-12-26T00:41:38.939Z,9.15
2022-12-26T00:44:06.195Z,9.17
2022-12-26T00:46:33.192Z,9.17
2022-12-26T00:49:00.427Z,9.18
2022-12-26T00:51:27.553Z,9.17
2022-12-26T00:53:54.503Z,9.17
2022-12-26T00:56:21.531Z,9.17
2022-12-26T00:58:48.556Z,9.19
2022-12-26T01:01:22.532Z,9.18
2022-12-26T01:03:51.296Z,9.18
2022-12-26T01:06:18.522Z,9.20
2022-12-26T01:08:45.732Z,9.21
2022-12-26T01:11:15.721Z,9.22
2022-12-26T01:13:43.250Z,9.21
2022-12-26T01:16:10.367Z,9.24
2022-12-26T01:18:37.440Z,9.26
2022-12-26T01:21:10.651Z,9.28
2022-12-26T01:23:37.598Z,9.28
2022-12-26T01:26:18.229Z,9.28
2022-12-26T01:28:51.228Z,9.27
2022-12-26T01:31:19.895Z,9.28
2022-12-26T01:33:47.308Z,9.30
2022-12-26T01:36:15.946Z,9.31
2022-12-26T01:38:42.846Z,9.30
2022-12-26T01:41:22.128Z,9.30
2022-12-26T01:43:53.625Z,9.31
2022-12-26T01:46:27.663Z,9.29
2022-12-26T01:49:01.101Z,9.31
2022-12-26T01:51:32.783Z,9.31
2022-12-26T01:54:38.361Z,9.27
2022-12-26T01:56:49.965Z,9.19
2022-12-26T01:59:27.135Z,9.13
2022-12-26T02:01:55.681Z,9.07
2022-12-26T02:04:53.080Z,9.08
2022-12-26T02:07:20.559Z,9.11
2022-12-26T02:09:47.629Z,9.12
2022-12-26T02:12:33.730Z,9.13
2022-12-26T02:15:12.863Z,9.13
2022-12-26T02:17:40.734Z,9.16
2022-12-26T02:20:37.127Z,9.20
2022-12-26T02:23:31.072Z,9.25
2022-12-26T02:26:00.630Z,9.29
2022-12-26T02:29:21.664Z,9.31
2022-12-26T02:32:12.339Z,9.34
2022-12-26T02:34:54.310Z,9.35
2022-12-26T02:37:42.668Z,9.37
2022-12-26T02:40:50.236Z,9.41
2022-12-26T02:43:47.136Z,9.43
2022-12-26T02:46:52.038Z,9.44
2022-12-26T02:50:16.747Z,9.46
2022-12-26T02:53:15.094Z,9.48
2022-12-26T02:56:05.661Z,9.50
2022-12-26T02:59:53.969Z,9.49
2022-12-26T03:03:02.024Z,9.49
2022-12-26T03:05:57.117Z,9.49
2022-12-26T03:09:10.976Z,9.47
2022-12-26T03:11:59.974Z,9.48
2022-12-26T03:14:33.924Z,9.46
2022-12-26T03:17:22.320Z,9.46
2022-12-26T03:20:13.171Z,9.44
2022-12-26T03:22:56.889Z,9.45
2022-12-26T03:25:54.340Z,9.46
2022-12-26T03:28:22.700Z,9.48
2022-12-26T03:30:49.836Z,9.48
2022-12-26T03:33:41.138Z,9.50
2022-12-26T03:36:14.017Z,9.51
2022-12-26T03:39:17.080Z,9.53
2022-12-26T03:42:28.245Z,9.55
2022-12-26T03:45:27.523Z,9.56
2022-12-26T03:48:20.246Z,9.59
2022-12-26T03:51:17.273Z,9.59
2022-12-26T03:54:16.690Z,9.60
2022-12-26T03:57:10.822Z,9.62
2022-12-26T04:00:34.053Z,9.61
2022-12-26T04:03:27.753Z,9.62
2022-12-26T04:06:15.492Z,9.64
2022-12-26T04:09:16.708Z,9.64
2022-12-26T04:12:04.207Z,9.63
2022-12-26T04:15:04.671Z,9.64
2022-12-26T04:18:05.225Z,9.66
2022-12-26T04:20:52.713Z,9.70
2022-12-26T04:23:46.540Z,9.72
2022-12-26T04:26:48.934Z,9.69
2022-12-26T04:29:34.848Z,9.67
2022-12-26T04:32:32.519Z,9.65
2022-12-26T04:35:35.716Z,9.64
2022-12-26T04:38:23.428Z,9.66
2022-12-26T04:41:16.871Z,9.65
2022-12-26T04:44:03.885Z,9.65
2022-12-26T04:46:32.458Z,9.66
2022-12-26T04:49:22.473Z,9.68
2022-12-26T04:51:50.004Z,9.71
2022-12-26T04:54:17.796Z,9.74
2022-12-26T04:56:44.848Z,9.78
2022-12-26T04:59:11.863Z,9.81
2022-12-26T05:01:57.230Z,9.83
2022-12-26T05:04:42.773Z,9.85
2022-12-26T05:07:42.115Z,9.85
2022-12-26T05:10:18.390Z,9.88
2022-12-26T05:12:45.362Z,9.90
2022-12-26T05:15:13.197Z,9.93
2022-12-26T05:17:58.771Z,9.94
2022-12-26T05:20:44.200Z,9.95
2022-12-26T05:23:45.597Z,9.96
2022-12-26T05:26:38.890Z,9.98
2022-12-26T05:29:06.083Z,9.99
2022-12-26T05:31:36.671Z,10.01
2022-12-26T05:34:17.568Z,10.01
2022-12-26T05:36:49.313Z,10.02
2022-12-26T05:39:16.857Z,10.01
2022-12-26T05:41:43.898Z,10.00
2022-12-26T05:44:11.476Z,10.01
2022-12-26T05:46:39.314Z,10.01
2022-12-26T05:49:07.265Z,10.03
2022-12-26T06:03:37.683Z,10.11
2022-12-26T06:07:16.654Z,10.12
2022-12-26T06:15:05.926Z,10.07
2022-12-26T06:25:28.395Z,10.16
2022-12-26T06:31:53.991Z,10.23
2022-12-26T06:34:40.012Z,10.26
2022-12-26T06:37:52.432Z,10.27
2022-12-26T06:45:20.718Z,10.28
2022-12-26T06:49:04.676Z,10.32
2022-12-26T06:55:22.753Z,10.33
2022-12-26T06:58:34.273Z,10.33
2022-12-26T07:05:28.063Z,10.34
2022-12-26T07:08:10.986Z,10.36
2022-12-26T07:11:28.665Z,10.37
2022-12-26T07:14:14.065Z,10.37
2022-12-26T07:17:46.922Z,10.37
2022-12-26T07:21:00.998Z,10.36
2022-12-26T07:24:22.543Z,10.36
2022-12-26T07:31:02.664Z,10.35
2022-12-26T07:33:53.039Z,10.38
2022-12-26T07:36:21.143Z,10.37
2022-12-26T07:38:48.325Z,10.39
2022-12-26T07:41:33.667Z,10.39
2022-12-26T07:44:00.812Z,10.40
2022-12-26T07:46:27.864Z,10.37
2022-12-26T07:48:54.836Z,10.35
2022-12-26T07:51:21.880Z,10.35
2022-12-26T07:53:48.991Z,10.37
2022-12-26T07:56:16.363Z,10.40
2022-12-26T07:58:43.371Z,10.42
2022-12-26T08:01:10.376Z,10.45
2022-12-26T08:03:38.551Z,10.47
2022-12-26T08:06:05.937Z,10.50
2022-12-26T08:08:32.826Z,10.52
2022-12-26T08:11:05.625Z,10.55
2022-12-26T08:13:33.683Z,10.55
2022-12-26T08:16:05.819Z,10.57
2022-12-26T08:18:32.940Z,10.60
2022-12-26T08:21:00.126Z,10.60
2022-12-26T08:23:28.468Z,10.62
2022-12-26T08:25:55.348Z,10.63
2022-12-26T08:28:22.942Z,10.63
2022-12-26T08:30:50.517Z,10.64
2022-12-26T08:33:17.514Z,10.65
2022-12-26T08:35:45.007Z,10.66
2022-12-26T08:38:11.881Z,10.67
2022-12-26T08:40:43.536Z,10.69
2022-12-26T08:43:33.394Z,10.72
2022-12-26T08:46:06.217Z,10.72
2022-12-26T08:48:34.366Z,10.74
2022-12-26T08:51:06.127Z,10.76
2022-12-26T08:53:35.819Z,10.76
2022-12-26T08:56:05.295Z,10.77
2022-12-26T08:58:33.298Z,10.79
2022-12-26T09:01:15.850Z,10.80
2022-12-26T09:03:44.149Z,10.82
2022-12-26T09:06:14.576Z,10.82
2022-12-26T09:08:42.783Z,10.83
2022-12-26T09:11:14.791Z,10.84
2022-12-26T09:13:42.891Z,10.84
2022-12-26T09:16:20.529Z,10.86
2022-12-26T09:18:49.496Z,10.87
2022-12-26T09:21:16.846Z,10.91
2022-12-26T09:23:43.956Z,10.93
2022-12-26T09:26:18.790Z,10.97
2022-12-26T09:28:47.246Z,10.99
2022-12-26T09:31:34.879Z,11.02
2022-12-26T09:34:06.621Z,11.06
2022-12-26T09:36:39.711Z,11.08
2022-12-26T09:39:07.993Z,11.10
2022-12-26T09:41:56.301Z,11.14
2022-12-26T09:44:34.627Z,11.20
2022-12-26T09:47:10.686Z,11.23
2022-12-26T09:49:56.989Z,11.28
2022-12-26T09:52:41.958Z,11.30
2022-12-26T09:55:38.738Z,11.36
2022-12-26T09:58:26.754Z,11.43
2022-12-26T10:01:02.577Z,11.44
2022-12-26T10:03:30.854Z,11.46
2022-12-26T10:06:41.763Z,11.45
2022-12-26T10:09:17.350Z,11.46
2022-12-26T10:12:03.860Z,11.47
2022-12-26T10:15:19.414Z,11.49
2022-12-26T10:18:16.960Z,11.55
2022-12-26T10:21:28.086Z,11.61
2022-12-26T10:24:15.870Z,11.63
2022-12-26T10:26:51.400Z,11.68
2022-12-26T10:29:27.947Z,11.67
2022-12-26T10:32:03.104Z,11.68
2022-12-26T10:34:45.539Z,11.64
2022-12-26T10:37:38.071Z,11.59
2022-12-26T10:40:39.718Z,11.54
2022-12-26T10:43:31.824Z,11.47
2022-12-26T10:46:20.277Z,11.44
2022-12-26T10:48:48.286Z,11.41
2022-12-26T10:51:16.141Z,11.37
2022-12-26T10:53:52.966Z,11.36
2022-12-26T10:56:21.890Z,11.37
2022-12-26T10:59:03.825Z,11.33
2022-12-26T11:01:35.523Z,11.29
2022-12-26T11:04:06.243Z,11.25
2022-12-26T11:06:38.337Z,11.19
2022-12-26T11:09:06.831Z,11.15
2022-12-26T11:11:46.003Z,11.14
2022-12-26T11:14:38.314Z,11.08
2022-12-26T11:17:33.621Z,11.09
2022-12-26T11:20:15.052Z,11.07
2022-12-26T11:22:46.521Z,11.05
2022-12-26T11:25:18.193Z,11.04
2022-12-26T11:27:51.416Z,11.02
2022-12-26T11:30:24.674Z,10.99
2022-12-26T11:33:14.780Z,10.98
2022-12-26T11:36:21.255Z,10.93
2022-12-26T11:39:03.349Z,10.88
2022-12-26T11:41:32.831Z,10.85
2022-12-26T11:44:04.819Z,10.83
2022-12-26T11:46:38.755Z,10.85
2022-12-26T11:49:06.713Z,10.86
2022-12-26T11:51:47.104Z,10.89
2022-12-26T11:54:50.742Z,10.93
2022-12-26T11:57:18.992Z,10.96
2022-12-26T11:59:47.316Z,10.99
2022-12-26T12:02:27.013Z,11.04
2022-12-26T12:05:12.806Z,11.07
2022-12-26T12:07:45.363Z,11.11
2022-12-26T12:10:47.761Z,11.12
2022-12-26T12:13:41.891Z,11.11
2022-12-26T12:16:36.396Z,11.07
2022-12-26T12:19:25.255Z,11.05
2022-12-26T12:22:04.028Z,11.02
2022-12-26T12:25:08.742Z,10.97
2022-12-26T12:28:07.889Z,10.94
2022-12-26T12:30:45.693Z,10.91
2022-12-26T12:33:38.506Z,10.89
2022-12-26T12:36:56.894Z,10.86
2022-12-26T12:39:44.559Z,10.86
2022-12-26T12:42:31.204Z,10.84
2022-12-26T12:45:30.109Z,10.85
2022-12-26T12:48:23.239Z,10.87
2022-12-26T12:51:03.632Z,10.91
2022-12-26T12:53:36.390Z,10.97
2022-12-26T12:56:44.684Z,11.01
2022-12-26T12:59:14.384Z,11.03
2022-12-26T13:01:48.838Z,11.03
2022-12-26T13:04:24.618Z,11.02
2022-12-26T13:07:00.247Z,11.01
2022-12-26T13:09:35.794Z,11.00
2022-12-26T13:12:07.334Z,11.02
2022-12-26T13:14:47.143Z,11.02
2022-12-26T13:17:50.356Z,11.02
2022-12-26T13:20:37.273Z,11.03
2022-12-26T13:23:37.723Z,11.02
2022-12-26T13:26:18.444Z,10.94
2022-12-26T13:29:20.327Z,10.84
2022-12-26T13:31:47.606Z,10.80
2022-12-26T13:34:20.256Z,10.80
2022-12-26T13:36:49.103Z,10.79
2022-12-26T13:39:32.249Z,10.76
2022-12-26T13:42:27.262Z,10.69
2022-12-26T13:44:54.628Z,10.63
2022-12-26T13:47:39.321Z,10.56
2022-12-26T13:50:57.053Z,10.45
2022-12-26T13:53:30.517Z,10.38
2022-12-26T13:56:04.951Z,10.31
2022-12-26T13:59:17.167Z,10.19
2022-12-26T14:02:19.983Z,10.10
2022-12-26T14:05:22.989Z,10.02
2022-12-26T14:08:06.551Z,9.99
2022-12-26T14:10:54.409Z,10.00
2022-12-26T14:13:49.137Z,10.01
2022-12-26T14:16:58.288Z,10.01
2022-12-26T14:19:51.094Z,10.00
2022-12-26T14:22:39.235Z,9.95
2022-12-26T14:25:28.759Z,9.92
2022-12-26T14:28:38.360Z,9.89
2022-12-26T14:31:49.430Z,9.81
2022-12-26T14:34:34.588Z,9.75
2022-12-26T14:37:26.435Z,9.68
2022-12-26T14:40:41.154Z,9.62
2022-12-26T14:43:58.488Z,9.55
2022-12-26T14:46:33.267Z,9.50
2022-12-26T14:49:18.316Z,9.43
2022-12-26T14:51:45.769Z,9.40
2022-12-26T14:54:22.433Z,9.42
2022-12-26T14:56:53.144Z,9.49
2022-12-26T14:59:33.217Z,9.56
2022-12-26T15:02:18.058Z,9.65
2022-12-26T15:05:04.485Z,9.72
2022-12-26T15:08:13.373Z,9.78
2022-12-26T15:11:08.115Z,9.86
2022-12-26T15:14:02.695Z,9.93
2022-12-26T15:16:45.984Z,9.96
2022-12-26T15:19:40.351Z,9.99
2022-12-26T15:23:02.371Z,10.00
2022-12-26T15:26:26.802Z,9.99
2022-12-26T15:29:11.236Z,9.95
2022-12-26T15:32:14.955Z,9.90
2022-12-26T15:34:51.659Z,9.86
2022-12-26T15:37:32.560Z,9.79
2022-12-26T15:40:18.461Z,9.64
2022-12-26T15:43:26.706Z,9.49
2022-12-26T15:46:11.223Z,9.38
2022-12-26T15:49:19.146Z,9.25
2022-12-26T15:52:51.615Z,9.15
2022-12-26T15:55:56.245Z,9.09
2022-12-26T15:59:09.152Z,9.06
2022-12-26T16:01:42.755Z,8.99
2022-12-26T16:04:39.999Z,8.93
2022-12-26T16:07:32.608Z,8.89
2022-12-26T16:09:59.889Z,8.84
2022-12-26T16:12:35.791Z,8.81
2022-12-26T16:15:11.457Z,8.79
2022-12-26T16:17:40.669Z,8.77
2022-12-26T16:20:43.138Z,8.76
2022-12-26T16:23:19.251Z,8.76
2022-12-26T16:25:56.705Z,8.77
2022-12-26T16:28:34.966Z,8.82
2022-12-26T16:31:02.387Z,8.89
2022-12-26T16:33:43.994Z,8.96
2022-12-26T16:36:24.157Z,9.03
2022-12-26T16:38:52.838Z,9.10
2022-12-26T16:41:29.594Z,9.12
2022-12-26T16:44:14.150Z,9.14
2022-12-26T16:46:41.434Z,9.19
2022-12-26T16:49:10.941Z,9.24
2022-12-26T16:51:44.117Z,9.29
2022-12-26T16:54:20.027Z,9.32
2022-12-26T16:57:02.271Z,9.34
2022-12-26T16:59:44.738Z,9.38
2022-12-26T17:02:34.618Z,9.44
2022-12-26T17:05:18.545Z,9.49
2022-12-26T17:07:48.835Z,9.56
2022-12-26T17:10:36.436Z,9.62
2022-12-26T17:13:09.692Z,9.69
2022-12-26T17:15:46.823Z,9.76
2022-12-26T17:18:46.617Z,9.82
2022-12-26T17:21:25.426Z,9.87
2022-12-26T17:24:25.426Z,9.89
2022-12-26T17:27:16.614Z,9.91
2022-12-26T17:29:50.752Z,9.92
2022-12-26T17:32:50.719Z,9.90
2022-12-26T17:35:26.140Z,9.90
2022-12-26T17:38:01.145Z,9.87
2022-12-26T17:40:33.812Z,9.80
2022-12-26T17:43:12.575Z,9.69
2022-12-26T17:45:46.550Z,9.60
2022-12-26T17:48:13.984Z,9.47
2022-12-26T17:50:45.906Z,9.38
2022-12-26T17:53:29.533Z,9.27
2022-12-26T17:56:00.702Z,9.20
2022-12-26T17:58:28.943Z,9.14
2022-12-26T18:00:56.579Z,9.11
2022-12-26T18:03:23.652Z,9.09
2022-12-26T18:05:50.876Z,9.08
2022-12-26T18:08:32.921Z,9.09
2022-12-26T18:11:02.184Z,9.07
2022-12-26T18:13:29.561Z,9.04
2022-12-26T18:15:57.825Z,9.02
2022-12-26T18:18:30.990Z,9.03
2022-12-26T18:20:57.945Z,9.02
2022-12-26T18:23:24.896Z,9.01
2022-12-26T18:25:54.674Z,9.01
2022-12-26T18:28:21.713Z,8.98
2022-12-26T18:30:48.786Z,8.97
2022-12-26T18:33:15.780Z,8.96
2022-12-26T18:35:44.360Z,8.92
2022-12-26T18:38:19.025Z,8.88
2022-12-26T18:40:50.422Z,8.87
2022-12-26T18:43:17.442Z,8.85
2022-12-26T18:45:44.742Z,8.83
2022-12-26T18:48:16.798Z,8.80
2022-12-26T18:50:44.189Z,8.74
2022-12-26T18:53:12.294Z,8.66
2022-12-26T18:55:40.359Z,8.56
2022-12-26T18:58:07.661Z,8.49
2022-12-26T19:00:36.026Z,8.47
2022-12-26T19:03:03.155Z,8.48
2022-12-26T19:05:33.812Z,8.50
2022-12-26T19:08:02.415Z,8.52
2022-12-26T19:10:33.620Z,8.55
2022-12-26T19:13:05.710Z,8.53
2022-12-26T19:15:35.077Z,8.49
2022-12-26T19:18:03.489Z,8.47
2022-12-26T19:20:30.442Z,8.44
2022-12-26T19:22:58.453Z,8.38
2022-12-26T19:25:27.054Z,8.35
2022-12-26T19:27:54.221Z,8.32
2022-12-26T19:30:22.513Z,8.28
2022-12-26T19:32:50.276Z,8.25
2022-12-26T19:35:18.461Z,8.22
2022-12-26T19:37:45.645Z,8.20
2022-12-26T19:40:19.763Z,8.17
2022-12-26T19:42:50.073Z,8.16
2022-12-26T19:45:17.391Z,8.16
2022-12-26T19:47:44.412Z,8.15
2022-12-26T19:50:12.449Z,8.14
2022-12-26T19:52:41.296Z,8.12
2022-12-26T19:55:11.427Z,8.09
2022-12-26T19:57:38.560Z,8.06
2022-12-26T20:00:07.027Z,8.03
2022-12-26T20:02:34.022Z,8.01
2022-12-26T20:05:01.028Z,7.99
2022-12-26T20:07:27.904Z,7.96
2022-12-26T20:09:55.836Z,7.90
2022-12-26T20:12:22.707Z,7.84
2022-12-26T20:14:49.612Z,7.78
2022-12-26T20:17:16.618Z,7.74
2022-12-26T20:19:44.414Z,7.68
2022-12-26T20:22:11.696Z,7.64
2022-12-26T20:24:38.620Z,7.59
2022-12-26T20:27:05.540Z,7.58
2022-12-26T20:29:32.511Z,7.54
2022-12-26T20:31:59.555Z,7.50
2022-12-26T20:34:26.713Z,7.44
2022-12-26T20:36:53.638Z,7.42
2022-12-26T20:39:21.151Z,7.39
2022-12-26T20:41:48.524Z,7.39
2022-12-26T20:44:17.438Z,7.39
2022-12-26T20:46:45.815Z,7.39
2022-12-26T20:49:13.239Z,7.38
2022-12-26T20:51:43.674Z,7.35
2022-12-26T20:54:12.428Z,7.31
2022-12-26T20:56:40.404Z,7.29
2022-12-26T20:59:08.329Z,7.29
2022-12-26T21:01:37.582Z,7.26
2022-12-26T21:04:04.916Z,7.23
2022-12-26T21:06:35.268Z,7.20
2022-12-26T21:12:03.979Z,7.13
2022-12-26T21:14:56.892Z,7.02
2022-12-26T21:17:41.395Z,6.91
2022-12-26T21:20:26.670Z,6.81
2022-12-26T21:23:26.812Z,6.68
2022-12-26T21:26:15.777Z,6.60
2022-12-26T21:29:11.642Z,6.52
2022-12-26T21:32:11.095Z,6.46
2022-12-26T21:35:04.670Z,6.42
2022-12-26T21:37:58.604Z,6.40
2022-12-26T21:40:32.705Z,6.39
2022-12-26T21:43:21.845Z,6.41
2022-12-26T21:46:50.030Z,6.44
2022-12-26T21:49:57.221Z,6.45
2022-12-26T21:52:49.355Z,6.46
2022-12-26T21:55:55.345Z,6.45
2022-12-26T21:58:55.647Z,6.46
2022-12-26T22:01:43.478Z,6.46
2022-12-26T22:07:56.711Z,6.46
2022-12-26T22:11:22.937Z,6.43
2022-12-26T22:14:06.961Z,6.43
2022-12-26T22:17:29.613Z,6.45
2022-12-26T22:20:35.824Z,6.45
2022-12-26T22:23:33.352Z,6.46
2022-12-26T22:26:31.133Z,6.46
2022-12-26T22:29:09.202Z,6.44
2022-12-26T22:32:09.758Z,6.44
2022-12-26T22:35:13.243Z,6.43
2022-12-26T22:38:37.869Z,6.42
2022-12-26T22:44:34.676Z,6.41
2022-12-26T22:47:37.089Z,6.41
2022-12-26T22:50:23.487Z,6.40
2022-12-26T22:53:21.839Z,6.39
2022-12-26T22:56:39.907Z,6.38
2022-12-26T23:00:06.958Z,6.40
2022-12-26T23:02:56.983Z,6.38
2022-12-26T23:06:01.655Z,6.37
2022-12-26T23:13:04.095Z,6.36
2022-12-26T23:16:35.108Z,6.37
2022-12-26T23:20:14.447Z,6.31
2022-12-26T23:23:11.663Z,6.29
2022-12-26T23:26:36.334Z,6.29
2022-12-26T23:33:31.639Z,6.23
2022-12-26T23:36:51.867Z,6.23
2022-12-26T23:39:59.801Z,6.15
2022-12-26T23:47:23.914Z,6.16
2022-12-26T23:50:22.457Z,6.13
2022-12-26T23:53:01.987Z,6.13
2022-12-26T23:55:54.873Z,6.12
2022-12-26T23:59:51.414Z,6.14
